CST,Max TemperatureF,Mean TemperatureF,Min TemperatureF,Max Dew PointF,MeanDew PointF,Min DewpointF,Max Humidity, Mean Humidity, Min Humidity, Max Sea Level PressureIn, Mean Sea Level PressureIn, Min Sea Level PressureIn, Max VisibilityMiles, Mean VisibilityMiles, Min VisibilityMiles, Max Wind SpeedMPH, Mean Wind SpeedMPH, Max Gust SpeedMPH,PrecipitationIn, CloudCover, Events, WindDirDegrees
2012-12-1,55,46,36,54,43,34,97,89,76,30.15,29.95,29.83,7,4,0,10,7,,0.00,8,,168
2012-12-2,55,46,38,54,46,38,97,87,63,30.04,29.95,29.83,7,4,0,10,5,,0.00,4,,321
2012-12-3,65,54,43,61,51,38,98,87,64,30.00,29.82,29.68,10,5,0,26,9,36,0.00,6,,185
2012-12-4,55,42,28,37,27,14,71,52,34,30.34,30.10,29.93,10,10,10,25,11,32,0.00,0,,298
2012-12-5,36,28,21,27,18,13,77,61,40,30.43,30.32,30.16,10,10,10,10,6,,0.00,0,,115
2012-12-6,45,39,33,35,31,27,85,72,59,30.15,29.96,29.84,10,10,10,15,10,21,0.00,6,,201
2012-12-7,42,38,33,32,28,24,92,69,49,29.99,29.95,29.92,10,10,10,9,4,,0.00,5,,32
2012-12-8,39,34,29,29,27,24,85,75,58,30.09,30.02,29.93,10,10,7,12,6,,0.00,5,,50
2012-12-9,36,34,33,34,32,28,98,94,76,30.08,29.87,29.69,10,4,0,13,7,17,0.22,8,,69
2012-12-10,33,30,27,33,27,23,100,86,70,29.92,29.81,29.69,10,8,3,14,8,,0.01,8,,314
2012-12-11,32,25,18,25,20,14,93,77,63,30.07,29.94,29.90,10,10,1,15,8,21,0.00,6,,229
2012-12-12,42,34,25,26,24,20,84,64,48,30.18,30.12,30.07,10,10,10,20,7,25,0.00,1,,197
2012-12-13,44,34,25,25,23,21,96,64,41,30.16,30.10,30.03,10,10,10,20,9,24,0.00,0,,207
2012-12-14,47,34,21,32,27,20,96,77,51,30.17,30.09,29.94,10,10,7,9,2,,0.00,0,,116
2012-12-15,45,41,37,45,40,32,98,91,68,29.94,29.67,29.51,10,6,1,17,7,22,0.24,8,,135
2012-12-16,45,40,36,45,38,33,98,91,84,29.71,29.61,29.51,10,7,0,16,6,23,0.05,8,,274
2012-12-17,35,31,27,32,27,24,94,86,77,29.74,29.71,29.69,10,9,5,13,7,,0.00,8,,322
2012-12-18,32,28,25,31,28,24,96,91,84,29.85,29.70,29.60,10,6,0,10,4,,0.03,8,,98
2012-12-19,34,30,25,32,30,24,98,93,86,30.03,29.97,29.85,7,5,0,13,3,17,0.08,8,,86
2012-12-20,34,32,29,33,31,24,99,94,80,29.83,29.47,29.27,5,2,0,26,17,40,0.25,8,,5
2012-12-21,28,22,14,24,12,8,82,71,60,30.19,30.00,29.63,10,9,3,28,19,44,0.00,2,,306
2012-12-22,27,14,0,16,6,-4,92,77,55,30.19,30.08,29.94,10,9,0,8,2,,0.00,0,,198
2012-12-23,24,12,1,19,12,-4,93,85,77,30.05,30.01,29.93,10,10,7,13,3,,0.00,3,,16
2012-12-24,25,20,14,20,16,9,92,81,68,30.14,29.99,29.92,10,10,7,10,3,,0.00,7,,358
2012-12-25,19,12,4,11,7,-1,86,77,64,30.35,30.29,30.14,10,10,10,9,4,,0.00,2,,338
2012-12-26,28,23,18,19,16,12,85,77,67,30.27,30.18,30.12,10,10,10,16,9,21,0.00,7,,10
2012-12-27,27,22,18,21,18,14,86,77,70,30.20,30.16,30.10,10,10,5,12,6,,0.00,8,,32
2012-12-28,30,26,21,27,24,21,96,90,79,30.10,29.99,29.90,10,5,1,7,4,,0.00,8,,70
2012-12-29,26,18,11,24,18,8,96,84,73,30.17,30.00,29.89,10,9,3,15,8,18,0.00,7,,292
2012-12-30,32,20,8,22,12,4,92,79,66,30.27,30.15,29.93,10,8,0,13,7,17,0.00,2,,217
2012-12-31,33,18,3,23,14,-1,83,75,65,30.16,30.03,29.92,10,10,7,14,8,18,0.00,2,,294